createdAt,value
2022-10-23T00:00:00.187Z,98
2022-10-23T00:05:00.189Z,98
2022-10-23T00:10:00.212Z,98
2022-10-23T00:15:00.188Z,98
2022-10-23T00:20:00.208Z,98
2022-10-23T00:25:00.189Z,98
2022-10-23T00:30:00.256Z,98
2022-10-23T07:30:00.285Z,99
2022-10-23T07:35:00.433Z,99
2022-10-23T07:45:00.267Z,99
2022-10-23T07:50:00.255Z,99
2022-10-23T07:55:00.277Z,99
2022-10-23T08:00:00.273Z,99
2022-10-23T08:15:00.208Z,99
2022-10-23T08:35:00.189Z,97
2022-10-23T08:40:00.224Z,97
2022-10-23T08:45:00.191Z,96
2022-10-23T08:50:00.190Z,96
2022-10-23T08:55:00.205Z,95
2022-10-23T09:00:00.340Z,94
2022-10-23T09:05:00.219Z,94
2022-10-23T09:10:00.194Z,93
2022-10-23T09:15:00.182Z,93
2022-10-23T09:20:00.195Z,92
2022-10-23T09:30:00.227Z,91
2022-10-23T09:40:00.305Z,91
2022-10-23T09:50:00.171Z,90
2022-10-23T09:55:00.212Z,90
2022-10-23T10:00:00.277Z,89
2022-10-23T10:05:00.222Z,90
2022-10-23T10:10:00.185Z,90
2022-10-23T10:15:00.193Z,90
2022-10-23T10:20:03.844Z,89
2022-10-23T10:25:00.215Z,89
2022-10-23T10:30:00.243Z,89
2022-10-23T10:35:00.203Z,88
2022-10-23T10:40:00.195Z,88
2022-10-23T10:45:00.184Z,88
2022-10-23T10:50:00.190Z,88
2022-10-23T10:55:00.215Z,88
2022-10-23T11:00:00.186Z,87
2022-10-23T11:05:00.195Z,87
2022-10-23T11:10:00.198Z,87
2022-10-23T11:15:00.195Z,87
2022-10-23T11:20:00.224Z,86
2022-10-23T11:30:00.234Z,86
2022-10-23T11:35:00.216Z,86
2022-10-23T11:45:00.215Z,84
2022-10-23T11:50:00.245Z,85
2022-10-23T12:10:00.221Z,83
2022-10-23T12:15:00.263Z,82
2022-10-23T12:20:00.201Z,82
2022-10-23T12:25:00.208Z,82
2022-10-23T12:30:00.287Z,81
2022-10-23T12:35:00.216Z,81
2022-10-23T12:40:00.204Z,80
2022-10-23T12:45:00.231Z,80
2022-10-23T12:50:00.249Z,81
2022-10-23T12:55:00.196Z,81
2022-10-23T13:00:00.287Z,81
2022-10-23T13:05:00.216Z,81
2022-10-23T13:10:00.217Z,81
2022-10-23T13:15:00.217Z,80
2022-10-23T13:20:00.221Z,80
2022-10-23T13:30:00.247Z,79
2022-10-23T13:35:10.139Z,80
2022-10-23T13:40:00.222Z,80
2022-10-23T13:45:00.219Z,80
2022-10-23T13:50:00.212Z,80
2022-10-23T13:55:00.211Z,79
2022-10-23T14:00:00.377Z,79
2022-10-23T14:05:00.194Z,78
2022-10-23T14:10:00.204Z,78
2022-10-23T14:15:00.227Z,78
2022-10-23T14:20:00.207Z,78
2022-10-23T14:25:00.213Z,79
2022-10-23T14:30:00.235Z,79
2022-10-23T14:35:00.225Z,78
2022-10-23T14:40:00.232Z,78
2022-10-23T14:45:00.203Z,78
2022-10-23T14:50:00.216Z,79
2022-10-23T14:55:00.283Z,79
2022-10-23T15:00:00.289Z,79
2022-10-23T15:05:00.212Z,79
2022-10-23T15:10:00.207Z,79
2022-10-23T15:15:00.218Z,80
2022-10-23T15:20:00.199Z,80
2022-10-23T15:25:01.356Z,80
2022-10-23T15:30:00.196Z,80
2022-10-23T15:35:00.221Z,80
2022-10-23T15:40:02.325Z,80
2022-10-23T15:45:00.223Z,80
2022-10-23T15:50:00.211Z,80
2022-10-23T15:55:00.203Z,80
2022-10-23T16:00:00.280Z,80
2022-10-23T16:05:00.212Z,81
2022-10-23T16:10:00.276Z,81
2022-10-23T16:15:00.185Z,81
2022-10-23T16:20:00.302Z,81
2022-10-23T16:25:00.186Z,81
2022-10-23T16:30:00.243Z,81
2022-10-23T16:35:00.186Z,81
2022-10-23T16:40:00.212Z,81
2022-10-23T16:45:00.202Z,81
2022-10-23T16:50:00.199Z,81
2022-10-23T16:55:00.219Z,81
2022-10-23T17:00:00.227Z,82
2022-10-23T17:05:00.177Z,82
2022-10-23T17:10:00.224Z,83
2022-10-23T17:15:00.198Z,83
2022-10-23T17:20:00.189Z,83
2022-10-23T17:25:00.211Z,82
2022-10-23T17:30:00.204Z,83
2022-10-23T17:35:00.240Z,82
2022-10-23T17:40:01.284Z,82
2022-10-23T17:45:00.196Z,82
2022-10-23T17:50:00.226Z,82
2022-10-23T17:55:00.210Z,83
2022-10-23T18:00:00.205Z,83
2022-10-23T18:05:00.179Z,83
2022-10-23T18:10:00.192Z,82
2022-10-23T18:15:00.205Z,83
2022-10-23T18:20:02.213Z,82
2022-10-23T18:25:00.180Z,83
2022-10-23T18:30:10.950Z,82
2022-10-23T18:35:00.233Z,82
2022-10-23T18:40:00.191Z,82
2022-10-23T18:45:00.223Z,82
2022-10-23T18:50:00.192Z,82
2022-10-23T18:55:00.199Z,81
2022-10-23T19:00:00.252Z,82
2022-10-23T19:05:00.188Z,81
2022-10-23T19:10:00.206Z,81
2022-10-23T19:15:00.194Z,82
2022-10-23T19:20:00.196Z,82
2022-10-23T19:25:00.194Z,82
2022-10-23T19:30:00.202Z,82
2022-10-23T19:35:00.190Z,82
2022-10-23T19:40:00.208Z,82
2022-10-23T19:45:00.198Z,82
2022-10-23T19:50:00.264Z,84
2022-10-23T19:55:00.199Z,87
2022-10-23T20:00:00.221Z,87
2022-10-23T20:05:00.201Z,87
2022-10-23T20:10:00.193Z,87
2022-10-23T20:15:00.194Z,88
2022-10-23T20:20:00.209Z,88
2022-10-23T20:25:00.219Z,89
2022-10-23T20:30:00.204Z,89
2022-10-23T20:35:00.191Z,89
2022-10-23T20:40:00.185Z,88
2022-10-23T20:45:00.184Z,87
2022-10-23T20:50:00.201Z,88
2022-10-23T20:55:00.198Z,87
2022-10-23T21:00:00.198Z,87
2022-10-23T21:05:00.189Z,86
2022-10-23T21:10:00.215Z,86
2022-10-23T21:15:00.240Z,85
2022-10-23T21:20:00.209Z,83
2022-10-23T21:25:00.187Z,82
2022-10-23T21:30:00.210Z,83
2022-10-23T21:35:00.183Z,83
2022-10-23T21:40:00.215Z,82
2022-10-23T21:45:00.217Z,82
2022-10-23T21:50:00.220Z,82
2022-10-23T21:55:00.208Z,82
2022-10-23T22:00:00.232Z,83
2022-10-23T22:05:00.205Z,83
2022-10-23T22:10:00.182Z,84
2022-10-23T22:15:00.226Z,85
2022-10-23T22:20:00.196Z,84
2022-10-23T22:25:00.193Z,84
2022-10-23T22:30:00.197Z,84
2022-10-23T22:35:00.207Z,84
2022-10-23T22:40:00.234Z,86
2022-10-23T22:45:00.192Z,85
2022-10-23T22:50:00.225Z,87
2022-10-23T22:55:00.192Z,88
2022-10-23T23:00:00.224Z,89
2022-10-23T23:05:00.208Z,88
2022-10-23T23:10:00.200Z,88
2022-10-23T23:15:00.232Z,87
2022-10-23T23:20:00.199Z,87
2022-10-23T23:25:00.197Z,87
2022-10-23T23:30:00.209Z,87
2022-10-23T23:35:00.222Z,88
2022-10-23T23:40:00.207Z,88
2022-10-23T23:45:13.406Z,89
2022-10-23T23:50:00.214Z,89
2022-10-23T23:55:00.201Z,89
